sensor_id;sensor_type;location;lat;lon;timestamp;P1;durP1;ratioP1;P2;durP2;ratioP2
22030;SDS011;11179;52.106;21.024;2022-11-15T00:01:42;47.50;;;21.87;;
22030;SDS011;11179;52.106;21.024;2022-11-15T00:04:07;49.37;;;22.20;;
22030;SDS011;11179;52.106;21.024;2022-11-15T00:06:35;50.67;;;23.83;;
22030;SDS011;11179;52.106;21.024;2022-11-15T00:09:00;53.17;;;23.10;;
22030;SDS011;11179;52.106;21.024;2022-11-15T00:11:26;50.50;;;23.80;;
22030;SDS011;11179;52.106;21.024;2022-11-15T00:13:54;50.80;;;23.57;;
22030;SDS011;11179;52.106;21.024;2022-11-15T00:16:20;52.27;;;25.90;;
22030;SDS011;11179;52.106;21.024;2022-11-15T00:18:45;52.50;;;25.20;;
22030;SDS011;11179;52.106;21.024;2022-11-15T00:21:11;53.87;;;25.13;;
22030;SDS011;11179;52.106;21.024;2022-11-15T00:23:38;55.10;;;25.00;;
22030;SDS011;11179;52.106;21.024;2022-11-15T00:26:04;54.27;;;25.00;;
22030;SDS011;11179;52.106;21.024;2022-11-15T00:28:29;57.43;;;24.30;;
22030;SDS011;11179;52.106;21.024;2022-11-15T00:31:02;54.60;;;26.73;;
22030;SDS011;11179;52.106;21.024;2022-11-15T00:33:28;54.07;;;24.93;;
22030;SDS011;11179;52.106;21.024;2022-11-15T00:35:58;58.27;;;25.10;;
22030;SDS011;11179;52.106;21.024;2022-11-15T00:38:25;49.47;;;22.57;;
22030;SDS011;11179;52.106;21.024;2022-11-15T00:40:50;49.90;;;22.43;;
22030;SDS011;11179;52.106;21.024;2022-11-15T00:43:15;62.00;;;26.43;;
22030;SDS011;11179;52.106;21.024;2022-11-15T00:45:41;60.87;;;25.13;;
22030;SDS011;11179;52.106;21.024;2022-11-15T00:48:06;53.73;;;24.20;;
22030;SDS011;11179;52.106;21.024;2022-11-15T00:50:32;57.43;;;25.50;;
22030;SDS011;11179;52.106;21.024;2022-11-15T00:52:57;53.93;;;23.50;;
22030;SDS011;11179;52.106;21.024;2022-11-15T00:55:23;56.40;;;23.70;;
22030;SDS011;11179;52.106;21.024;2022-11-15T00:57:48;51.23;;;24.20;;
22030;SDS011;11179;52.106;21.024;2022-11-15T01:00:13;54.70;;;23.70;;
22030;SDS011;11179;52.106;21.024;2022-11-15T01:02:39;53.17;;;23.57;;
22030;SDS011;11179;52.106;21.024;2022-11-15T01:05:04;55.40;;;23.23;;
22030;SDS011;11179;52.106;21.024;2022-11-15T01:07:30;49.37;;;22.83;;
22030;SDS011;11179;52.106;21.024;2022-11-15T01:09:56;50.73;;;21.50;;
22030;SDS011;11179;52.106;21.024;2022-11-15T01:12:21;55.67;;;21.97;;
22030;SDS011;11179;52.106;21.024;2022-11-15T01:14:46;49.07;;;20.60;;
22030;SDS011;11179;52.106;21.024;2022-11-15T01:17:12;51.37;;;22.90;;
22030;SDS011;11179;52.106;21.024;2022-11-15T01:19:37;49.97;;;21.90;;
22030;SDS011;11179;52.106;21.024;2022-11-15T01:22:02;67.00;;;24.20;;
22030;SDS011;11179;52.106;21.024;2022-11-15T01:24:28;49.70;;;22.10;;
22030;SDS011;11179;52.106;21.024;2022-11-15T01:26:53;54.77;;;23.67;;
22030;SDS011;11179;52.106;21.024;2022-11-15T01:29:18;57.87;;;21.90;;
22030;SDS011;11179;52.106;21.024;2022-11-15T01:31:44;50.50;;;21.50;;
22030;SDS011;11179;52.106;21.024;2022-11-15T01:34:09;52.00;;;21.30;;
22030;SDS011;11179;52.106;21.024;2022-11-15T01:36:34;54.83;;;24.70;;
22030;SDS011;11179;52.106;21.024;2022-11-15T01:38:59;59.33;;;26.37;;
22030;SDS011;11179;52.106;21.024;2022-11-15T01:41:27;56.03;;;22.43;;
22030;SDS011;11179;52.106;21.024;2022-11-15T01:43:56;53.67;;;23.87;;
22030;SDS011;11179;52.106;21.024;2022-11-15T01:46:42;53.03;;;21.87;;
22030;SDS011;11179;52.106;21.024;2022-11-15T01:49:17;50.13;;;22.57;;
22030;SDS011;11179;52.106;21.024;2022-11-15T01:51:45;55.90;;;24.20;;
22030;SDS011;11179;52.106;21.024;2022-11-15T01:54:12;51.40;;;22.17;;
22030;SDS011;11179;52.106;21.024;2022-11-15T01:56:49;50.97;;;22.87;;
22030;SDS011;11179;52.106;21.024;2022-11-15T01:59:24;54.20;;;23.77;;
22030;SDS011;11179;52.106;21.024;2022-11-15T02:01:51;53.90;;;22.90;;
22030;SDS011;11179;52.106;21.024;2022-11-15T02:04:17;53.57;;;23.60;;
22030;SDS011;11179;52.106;21.024;2022-11-15T02:06:48;57.37;;;23.80;;
22030;SDS011;11179;52.106;21.024;2022-11-15T02:09:13;54.27;;;23.87;;
22030;SDS011;11179;52.106;21.024;2022-11-15T02:11:40;54.97;;;24.60;;
22030;SDS011;11179;52.106;21.024;2022-11-15T02:14:06;53.50;;;22.97;;
22030;SDS011;11179;52.106;21.024;2022-11-15T02:27:59;67.33;;;26.67;;
22030;SDS011;11179;52.106;21.024;2022-11-15T02:30:32;63.60;;;25.97;;
22030;SDS011;11179;52.106;21.024;2022-11-15T02:36:04;64.17;;;28.87;;
22030;SDS011;11179;52.106;21.024;2022-11-15T02:43:53;66.33;;;27.10;;
22030;SDS011;11179;52.106;21.024;2022-11-15T02:49:32;68.00;;;28.63;;
22030;SDS011;11179;52.106;21.024;2022-11-15T02:52:02;68.63;;;28.87;;
22030;SDS011;11179;52.106;21.024;2022-11-15T02:54:31;71.40;;;26.10;;
22030;SDS011;11179;52.106;21.024;2022-11-15T02:57:05;68.13;;;26.17;;
22030;SDS011;11179;52.106;21.024;2022-11-15T03:08:00;71.80;;;29.20;;
22030;SDS011;11179;52.106;21.024;2022-11-15T03:10:32;67.97;;;28.53;;
22030;SDS011;11179;52.106;21.024;2022-11-15T03:16:18;67.20;;;26.67;;
22030;SDS011;11179;52.106;21.024;2022-11-15T03:18:52;62.00;;;26.97;;
22030;SDS011;11179;52.106;21.024;2022-11-15T03:21:25;55.80;;;24.03;;
22030;SDS011;11179;52.106;21.024;2022-11-15T03:23:54;59.07;;;24.30;;
22030;SDS011;11179;52.106;21.024;2022-11-15T03:26:23;64.37;;;25.90;;
22030;SDS011;11179;52.106;21.024;2022-11-15T03:28:51;64.63;;;22.40;;
22030;SDS011;11179;52.106;21.024;2022-11-15T03:31:21;51.87;;;22.43;;
22030;SDS011;11179;52.106;21.024;2022-11-15T03:34:10;63.27;;;25.10;;
22030;SDS011;11179;52.106;21.024;2022-11-15T03:36:48;60.20;;;25.43;;
22030;SDS011;11179;52.106;21.024;2022-11-15T03:39:15;62.50;;;26.17;;
22030;SDS011;11179;52.106;21.024;2022-11-15T03:42:25;70.93;;;26.63;;
22030;SDS011;11179;52.106;21.024;2022-11-15T03:47:16;58.60;;;24.83;;
22030;SDS011;11179;52.106;21.024;2022-11-15T03:49:44;70.23;;;26.10;;
22030;SDS011;11179;52.106;21.024;2022-11-15T03:52:17;64.57;;;27.37;;
22030;SDS011;11179;52.106;21.024;2022-11-15T03:54:47;62.90;;;24.87;;
22030;SDS011;11179;52.106;21.024;2022-11-15T03:57:18;57.87;;;24.10;;
22030;SDS011;11179;52.106;21.024;2022-11-15T03:59:43;60.80;;;25.60;;
22030;SDS011;11179;52.106;21.024;2022-11-15T04:02:09;61.23;;;26.00;;
22030;SDS011;11179;52.106;21.024;2022-11-15T04:04:34;66.23;;;26.10;;
22030;SDS011;11179;52.106;21.024;2022-11-15T04:06:59;67.07;;;25.47;;
22030;SDS011;11179;52.106;21.024;2022-11-15T04:09:25;59.03;;;24.90;;
22030;SDS011;11179;52.106;21.024;2022-11-15T04:11:50;66.43;;;26.37;;
22030;SDS011;11179;52.106;21.024;2022-11-15T04:14:15;61.60;;;24.73;;
22030;SDS011;11179;52.106;21.024;2022-11-15T04:16:41;75.57;;;27.33;;
22030;SDS011;11179;52.106;21.024;2022-11-15T04:19:06;58.90;;;24.70;;
22030;SDS011;11179;52.106;21.024;2022-11-15T04:21:50;67.33;;;28.07;;
22030;SDS011;11179;52.106;21.024;2022-11-15T04:24:34;59.73;;;22.90;;
22030;SDS011;11179;52.106;21.024;2022-11-15T04:26:59;71.37;;;26.43;;
22030;SDS011;11179;52.106;21.024;2022-11-15T04:29:25;67.13;;;26.40;;
22030;SDS011;11179;52.106;21.024;2022-11-15T04:32:00;67.43;;;26.03;;
22030;SDS011;11179;52.106;21.024;2022-11-15T04:34:29;69.63;;;26.50;;
22030;SDS011;11179;52.106;21.024;2022-11-15T04:36:54;60.60;;;26.77;;
22030;SDS011;11179;52.106;21.024;2022-11-15T04:39:41;64.70;;;25.88;;
22030;SDS011;11179;52.106;21.024;2022-11-15T04:42:07;55.67;;;23.07;;
22030;SDS011;11179;52.106;21.024;2022-11-15T04:44:33;59.87;;;25.43;;
22030;SDS011;11179;52.106;21.024;2022-11-15T04:47:00;65.00;;;24.77;;
22030;SDS011;11179;52.106;21.024;2022-11-15T04:49:25;57.13;;;23.03;;
22030;SDS011;11179;52.106;21.024;2022-11-15T04:51:51;69.80;;;26.27;;
22030;SDS011;11179;52.106;21.024;2022-11-15T04:54:17;64.77;;;26.17;;
22030;SDS011;11179;52.106;21.024;2022-11-15T04:56:42;62.83;;;25.70;;
22030;SDS011;11179;52.106;21.024;2022-11-15T04:59:07;75.07;;;27.80;;
22030;SDS011;11179;52.106;21.024;2022-11-15T05:01:33;64.90;;;27.37;;
22030;SDS011;11179;52.106;21.024;2022-11-15T05:03:58;64.27;;;23.93;;
22030;SDS011;11179;52.106;21.024;2022-11-15T05:06:42;79.63;;;28.07;;
22030;SDS011;11179;52.106;21.024;2022-11-15T05:09:08;71.87;;;25.73;;
22030;SDS011;11179;52.106;21.024;2022-11-15T05:11:33;58.60;;;25.60;;
22030;SDS011;11179;52.106;21.024;2022-11-15T05:13:58;58.73;;;21.33;;
22030;SDS011;11179;52.106;21.024;2022-11-15T05:16:24;65.77;;;24.27;;
22030;SDS011;11179;52.106;21.024;2022-11-15T05:18:52;62.17;;;23.70;;
22030;SDS011;11179;52.106;21.024;2022-11-15T05:21:19;59.30;;;25.10;;
22030;SDS011;11179;52.106;21.024;2022-11-15T05:23:44;58.77;;;23.93;;
22030;SDS011;11179;52.106;21.024;2022-11-15T05:26:10;66.13;;;24.30;;
22030;SDS011;11179;52.106;21.024;2022-11-15T05:28:36;78.13;;;25.33;;
22030;SDS011;11179;52.106;21.024;2022-11-15T05:31:13;65.43;;;25.10;;
22030;SDS011;11179;52.106;21.024;2022-11-15T05:33:40;61.83;;;22.70;;
22030;SDS011;11179;52.106;21.024;2022-11-15T05:36:17;63.63;;;23.60;;
22030;SDS011;11179;52.106;21.024;2022-11-15T05:38:43;63.40;;;23.50;;
22030;SDS011;11179;52.106;21.024;2022-11-15T05:41:09;72.23;;;26.40;;
22030;SDS011;11179;52.106;21.024;2022-11-15T05:43:36;63.37;;;23.50;;
22030;SDS011;11179;52.106;21.024;2022-11-15T05:46:04;71.77;;;27.67;;
22030;SDS011;11179;52.106;21.024;2022-11-15T05:48:30;69.50;;;25.20;;
22030;SDS011;11179;52.106;21.024;2022-11-15T05:50:56;72.93;;;28.00;;
22030;SDS011;11179;52.106;21.024;2022-11-15T05:53:22;69.50;;;26.10;;
22030;SDS011;11179;52.106;21.024;2022-11-15T05:55:49;69.37;;;25.57;;
22030;SDS011;11179;52.106;21.024;2022-11-15T05:58:15;66.03;;;25.00;;
22030;SDS011;11179;52.106;21.024;2022-11-15T06:00:40;63.67;;;24.30;;
22030;SDS011;11179;52.106;21.024;2022-11-15T06:03:08;76.77;;;25.90;;
22030;SDS011;11179;52.106;21.024;2022-11-15T06:05:33;73.03;;;24.77;;
22030;SDS011;11179;52.106;21.024;2022-11-15T06:07:59;82.13;;;27.17;;
22030;SDS011;11179;52.106;21.024;2022-11-15T06:10:24;70.57;;;25.50;;
22030;SDS011;11179;52.106;21.024;2022-11-15T06:13:00;68.70;;;25.57;;
22030;SDS011;11179;52.106;21.024;2022-11-15T06:15:27;67.40;;;23.90;;
22030;SDS011;11179;52.106;21.024;2022-11-15T06:17:55;71.67;;;24.73;;
22030;SDS011;11179;52.106;21.024;2022-11-15T06:20:25;71.40;;;27.57;;
22030;SDS011;11179;52.106;21.024;2022-11-15T06:22:55;73.67;;;25.90;;
22030;SDS011;11179;52.106;21.024;2022-11-15T06:25:25;72.33;;;26.40;;
22030;SDS011;11179;52.106;21.024;2022-11-15T06:27:52;94.77;;;27.90;;
22030;SDS011;11179;52.106;21.024;2022-11-15T06:30:18;64.43;;;24.73;;
22030;SDS011;11179;52.106;21.024;2022-11-15T06:32:44;71.97;;;26.23;;
22030;SDS011;11179;52.106;21.024;2022-11-15T06:35:09;71.97;;;25.90;;
22030;SDS011;11179;52.106;21.024;2022-11-15T06:37:35;64.03;;;25.20;;
22030;SDS011;11179;52.106;21.024;2022-11-15T06:40:00;76.80;;;26.20;;
22030;SDS011;11179;52.106;21.024;2022-11-15T06:42:25;69.03;;;25.87;;
22030;SDS011;11179;52.106;21.024;2022-11-15T06:44:50;62.67;;;22.67;;
22030;SDS011;11179;52.106;21.024;2022-11-15T06:47:16;54.07;;;20.87;;
22030;SDS011;11179;52.106;21.024;2022-11-15T06:49:41;53.67;;;21.07;;
22030;SDS011;11179;52.106;21.024;2022-11-15T06:52:06;54.23;;;20.43;;
22030;SDS011;11179;52.106;21.024;2022-11-15T06:54:32;64.43;;;24.70;;
22030;SDS011;11179;52.106;21.024;2022-11-15T06:56:57;61.00;;;24.03;;
22030;SDS011;11179;52.106;21.024;2022-11-15T06:59:22;75.13;;;24.87;;
22030;SDS011;11179;52.106;21.024;2022-11-15T07:01:48;66.23;;;22.00;;
22030;SDS011;11179;52.106;21.024;2022-11-15T07:06:47;64.73;;;24.63;;
22030;SDS011;11179;52.106;21.024;2022-11-15T07:09:13;53.63;;;22.50;;
22030;SDS011;11179;52.106;21.024;2022-11-15T07:11:39;64.83;;;23.10;;
22030;SDS011;11179;52.106;21.024;2022-11-15T07:14:04;63.30;;;23.80;;
22030;SDS011;11179;52.106;21.024;2022-11-15T07:16:29;60.53;;;22.50;;
22030;SDS011;11179;52.106;21.024;2022-11-15T07:18:55;58.37;;;22.77;;
22030;SDS011;11179;52.106;21.024;2022-11-15T07:21:20;54.80;;;22.30;;
22030;SDS011;11179;52.106;21.024;2022-11-15T07:23:46;45.13;;;18.27;;
22030;SDS011;11179;52.106;21.024;2022-11-15T07:26:11;48.07;;;19.20;;
22030;SDS011;11179;52.106;21.024;2022-11-15T07:28:36;46.90;;;18.60;;
22030;SDS011;11179;52.106;21.024;2022-11-15T07:31:05;56.17;;;21.30;;
22030;SDS011;11179;52.106;21.024;2022-11-15T07:33:33;58.00;;;20.93;;
22030;SDS011;11179;52.106;21.024;2022-11-15T07:35:59;53.37;;;22.77;;
22030;SDS011;11179;52.106;21.024;2022-11-15T07:38:26;55.03;;;21.07;;
22030;SDS011;11179;52.106;21.024;2022-11-15T07:40:55;61.47;;;21.00;;
22030;SDS011;11179;52.106;21.024;2022-11-15T07:43:25;53.90;;;21.70;;
22030;SDS011;11179;52.106;21.024;2022-11-15T07:45:52;49.03;;;19.00;;
22030;SDS011;11179;52.106;21.024;2022-11-15T07:48:18;47.47;;;19.60;;
22030;SDS011;11179;52.106;21.024;2022-11-15T07:50:43;47.23;;;17.63;;
22030;SDS011;11179;52.106;21.024;2022-11-15T07:53:09;51.17;;;20.33;;
22030;SDS011;11179;52.106;21.024;2022-11-15T07:55:35;50.27;;;20.60;;
22030;SDS011;11179;52.106;21.024;2022-11-15T07:58:05;47.73;;;18.27;;
22030;SDS011;11179;52.106;21.024;2022-11-15T08:00:32;46.33;;;18.70;;
22030;SDS011;11179;52.106;21.024;2022-11-15T08:03:16;41.87;;;16.60;;
22030;SDS011;11179;52.106;21.024;2022-11-15T08:05:42;40.87;;;18.37;;
22030;SDS011;11179;52.106;21.024;2022-11-15T08:08:09;43.30;;;17.87;;
22030;SDS011;11179;52.106;21.024;2022-11-15T08:10:35;39.90;;;16.80;;
22030;SDS011;11179;52.106;21.024;2022-11-15T08:13:09;38.20;;;17.87;;
22030;SDS011;11179;52.106;21.024;2022-11-15T08:15:36;44.13;;;17.93;;
22030;SDS011;11179;52.106;21.024;2022-11-15T08:18:03;45.63;;;18.07;;
22030;SDS011;11179;52.106;21.024;2022-11-15T08:20:40;49.93;;;18.90;;
22030;SDS011;11179;52.106;21.024;2022-11-15T08:23:06;44.58;;;18.00;;
22030;SDS011;11179;52.106;21.024;2022-11-15T08:25:33;41.63;;;18.43;;
22030;SDS011;11179;52.106;21.024;2022-11-15T08:28:00;45.57;;;17.80;;
22030;SDS011;11179;52.106;21.024;2022-11-15T08:30:27;51.97;;;19.37;;
22030;SDS011;11179;52.106;21.024;2022-11-15T08:32:55;45.80;;;18.43;;
22030;SDS011;11179;52.106;21.024;2022-11-15T08:35:22;52.33;;;18.33;;
22030;SDS011;11179;52.106;21.024;2022-11-15T08:37:48;42.90;;;17.70;;
22030;SDS011;11179;52.106;21.024;2022-11-15T08:40:14;47.50;;;19.00;;
22030;SDS011;11179;52.106;21.024;2022-11-15T08:42:39;51.77;;;19.77;;
22030;SDS011;11179;52.106;21.024;2022-11-15T08:45:05;47.37;;;19.83;;
22030;SDS011;11179;52.106;21.024;2022-11-15T08:47:31;46.77;;;16.93;;
22030;SDS011;11179;52.106;21.024;2022-11-15T08:49:57;42.13;;;17.07;;
22030;SDS011;11179;52.106;21.024;2022-11-15T08:52:23;48.17;;;19.07;;
22030;SDS011;11179;52.106;21.024;2022-11-15T08:54:48;47.90;;;18.73;;
22030;SDS011;11179;52.106;21.024;2022-11-15T08:57:14;46.00;;;17.70;;
22030;SDS011;11179;52.106;21.024;2022-11-15T08:59:39;52.03;;;21.47;;
22030;SDS011;11179;52.106;21.024;2022-11-15T09:02:05;41.30;;;17.40;;
22030;SDS011;11179;52.106;21.024;2022-11-15T09:04:30;46.87;;;18.10;;
22030;SDS011;11179;52.106;21.024;2022-11-15T09:06:56;51.00;;;19.03;;
22030;SDS011;11179;52.106;21.024;2022-11-15T09:09:21;47.90;;;20.60;;
22030;SDS011;11179;52.106;21.024;2022-11-15T09:11:47;43.40;;;18.40;;
22030;SDS011;11179;52.106;21.024;2022-11-15T09:14:15;47.80;;;19.33;;
22030;SDS011;11179;52.106;21.024;2022-11-15T09:16:41;48.57;;;18.90;;
22030;SDS011;11179;52.106;21.024;2022-11-15T09:19:06;54.47;;;21.73;;
22030;SDS011;11179;52.106;21.024;2022-11-15T09:21:32;38.70;;;18.37;;
22030;SDS011;11179;52.106;21.024;2022-11-15T09:23:57;51.93;;;21.63;;
22030;SDS011;11179;52.106;21.024;2022-11-15T09:26:23;44.53;;;19.60;;
22030;SDS011;11179;52.106;21.024;2022-11-15T09:28:48;45.57;;;21.17;;
22030;SDS011;11179;52.106;21.024;2022-11-15T09:31:14;54.83;;;20.80;;
22030;SDS011;11179;52.106;21.024;2022-11-15T09:33:39;47.03;;;19.23;;
22030;SDS011;11179;52.106;21.024;2022-11-15T09:36:08;45.77;;;19.10;;
22030;SDS011;11179;52.106;21.024;2022-11-15T09:38:34;46.17;;;18.63;;
22030;SDS011;11179;52.106;21.024;2022-11-15T09:49:21;48.20;;;20.90;;
22030;SDS011;11179;52.106;21.024;2022-11-15T09:51:48;51.23;;;18.70;;
22030;SDS011;11179;52.106;21.024;2022-11-15T09:54:35;51.73;;;20.43;;
22030;SDS011;11179;52.106;21.024;2022-11-15T09:57:48;45.53;;;21.27;;
22030;SDS011;11179;52.106;21.024;2022-11-15T10:02:50;52.90;;;22.00;;
22030;SDS011;11179;52.106;21.024;2022-11-15T10:05:38;48.50;;;20.33;;
22030;SDS011;11179;52.106;21.024;2022-11-15T10:08:17;49.97;;;21.80;;
22030;SDS011;11179;52.106;21.024;2022-11-15T10:10:50;46.13;;;21.60;;
22030;SDS011;11179;52.106;21.024;2022-11-15T10:13:25;48.53;;;21.13;;
22030;SDS011;11179;52.106;21.024;2022-11-15T10:15:54;50.00;;;19.60;;
22030;SDS011;11179;52.106;21.024;2022-11-15T10:18:36;42.90;;;17.87;;
22030;SDS011;11179;52.106;21.024;2022-11-15T10:21:15;52.90;;;20.83;;
22030;SDS011;11179;52.106;21.024;2022-11-15T10:23:44;40.80;;;17.87;;
22030;SDS011;11179;52.106;21.024;2022-11-15T10:26:11;54.17;;;21.67;;
22030;SDS011;11179;52.106;21.024;2022-11-15T10:28:40;52.13;;;20.33;;
22030;SDS011;11179;52.106;21.024;2022-11-15T10:31:20;64.00;;;20.07;;
22030;SDS011;11179;52.106;21.024;2022-11-15T10:33:47;45.00;;;19.97;;
22030;SDS011;11179;52.106;21.024;2022-11-15T10:41:13;42.60;;;19.17;;
22030;SDS011;11179;52.106;21.024;2022-11-15T10:43:38;45.53;;;19.53;;
22030;SDS011;11179;52.106;21.024;2022-11-15T10:57:11;52.07;;;21.57;;
22030;SDS011;11179;52.106;21.024;2022-11-15T10:59:40;53.10;;;23.87;;
22030;SDS011;11179;52.106;21.024;2022-11-15T11:04:59;51.20;;;22.43;;
22030;SDS011;11179;52.106;21.024;2022-11-15T11:07:27;52.57;;;21.90;;
22030;SDS011;11179;52.106;21.024;2022-11-15T11:12:38;49.93;;;20.77;;
22030;SDS011;11179;52.106;21.024;2022-11-15T11:15:09;51.83;;;20.83;;
22030;SDS011;11179;52.106;21.024;2022-11-15T11:20:41;56.53;;;23.80;;
22030;SDS011;11179;52.106;21.024;2022-11-15T11:26:10;53.63;;;24.80;;
22030;SDS011;11179;52.106;21.024;2022-11-15T11:47:56;58.10;;;24.63;;
22030;SDS011;11179;52.106;21.024;2022-11-15T11:50:36;59.87;;;25.33;;
22030;SDS011;11179;52.106;21.024;2022-11-15T11:53:04;61.17;;;26.43;;
22030;SDS011;11179;52.106;21.024;2022-11-15T11:55:38;55.77;;;22.90;;
22030;SDS011;11179;52.106;21.024;2022-11-15T12:00:47;60.03;;;24.33;;
22030;SDS011;11179;52.106;21.024;2022-11-15T12:08:46;60.93;;;25.80;;
22030;SDS011;11179;52.106;21.024;2022-11-15T12:11:21;57.57;;;26.60;;
22030;SDS011;11179;52.106;21.024;2022-11-15T12:13:55;59.60;;;24.50;;
22030;SDS011;11179;52.106;21.024;2022-11-15T12:16:25;58.97;;;25.90;;
22030;SDS011;11179;52.106;21.024;2022-11-15T12:18:53;54.17;;;25.20;;
22030;SDS011;11179;52.106;21.024;2022-11-15T12:24:57;56.87;;;24.43;;
22030;SDS011;11179;52.106;21.024;2022-11-15T12:29:38;53.43;;;24.87;;
22030;SDS011;11179;52.106;21.024;2022-11-15T12:32:16;51.13;;;23.20;;
22030;SDS011;11179;52.106;21.024;2022-11-15T12:34:49;56.17;;;24.37;;
22030;SDS011;11179;52.106;21.024;2022-11-15T12:42:59;53.10;;;23.07;;
22030;SDS011;11179;52.106;21.024;2022-11-15T12:45:33;52.07;;;23.70;;
22030;SDS011;11179;52.106;21.024;2022-11-15T12:56:08;52.70;;;23.93;;
22030;SDS011;11179;52.106;21.024;2022-11-15T13:06:44;55.90;;;24.50;;
22030;SDS011;11179;52.106;21.024;2022-11-15T13:12:09;49.70;;;23.70;;
22030;SDS011;11179;52.106;21.024;2022-11-15T13:14:52;54.73;;;24.20;;
22030;SDS011;11179;52.106;21.024;2022-11-15T13:19:52;54.67;;;24.77;;
22030;SDS011;11179;52.106;21.024;2022-11-15T13:22:23;48.70;;;23.13;;
22030;SDS011;11179;52.106;21.024;2022-11-15T13:27:58;48.60;;;23.67;;
22030;SDS011;11179;52.106;21.024;2022-11-15T13:30:26;50.37;;;21.50;;
22030;SDS011;11179;52.106;21.024;2022-11-15T13:32:55;54.50;;;24.80;;
22030;SDS011;11179;52.106;21.024;2022-11-15T13:37:52;48.27;;;23.40;;
22030;SDS011;11179;52.106;21.024;2022-11-15T13:40:29;57.43;;;24.23;;
22030;SDS011;11179;52.106;21.024;2022-11-15T13:43:02;51.07;;;22.60;;
22030;SDS011;11179;52.106;21.024;2022-11-15T13:48:41;59.00;;;25.00;;
22030;SDS011;11179;52.106;21.024;2022-11-15T13:51:53;56.23;;;23.50;;
22030;SDS011;11179;52.106;21.024;2022-11-15T13:56:42;57.53;;;23.77;;
22030;SDS011;11179;52.106;21.024;2022-11-15T13:59:13;54.33;;;25.93;;
22030;SDS011;11179;52.106;21.024;2022-11-15T14:01:43;52.30;;;22.67;;
22030;SDS011;11179;52.106;21.024;2022-11-15T14:04:10;52.67;;;23.50;;
22030;SDS011;11179;52.106;21.024;2022-11-15T14:06:43;62.90;;;26.13;;
22030;SDS011;11179;52.106;21.024;2022-11-15T14:11:53;54.87;;;25.30;;
22030;SDS011;11179;52.106;21.024;2022-11-15T14:14:21;66.43;;;28.73;;
22030;SDS011;11179;52.106;21.024;2022-11-15T14:16:49;61.93;;;27.63;;
22030;SDS011;11179;52.106;21.024;2022-11-15T14:25:04;55.77;;;27.13;;
22030;SDS011;11179;52.106;21.024;2022-11-15T14:30:39;59.97;;;28.33;;
22030;SDS011;11179;52.106;21.024;2022-11-15T14:35:48;59.70;;;27.30;;
22030;SDS011;11179;52.106;21.024;2022-11-15T14:38:13;55.93;;;26.80;;
22030;SDS011;11179;52.106;21.024;2022-11-15T14:40:39;61.37;;;27.53;;
22030;SDS011;11179;52.106;21.024;2022-11-15T14:43:07;57.60;;;26.23;;
22030;SDS011;11179;52.106;21.024;2022-11-15T14:45:35;58.40;;;26.27;;
22030;SDS011;11179;52.106;21.024;2022-11-15T14:48:00;56.93;;;25.37;;
22030;SDS011;11179;52.106;21.024;2022-11-15T14:50:25;59.50;;;27.67;;
22030;SDS011;11179;52.106;21.024;2022-11-15T14:52:52;65.77;;;27.03;;
22030;SDS011;11179;52.106;21.024;2022-11-15T14:55:25;62.57;;;28.57;;
22030;SDS011;11179;52.106;21.024;2022-11-15T14:57:53;60.50;;;28.50;;
22030;SDS011;11179;52.106;21.024;2022-11-15T15:00:19;64.60;;;27.73;;
22030;SDS011;11179;52.106;21.024;2022-11-15T15:02:46;69.30;;;31.50;;
22030;SDS011;11179;52.106;21.024;2022-11-15T15:05:22;71.07;;;30.97;;
22030;SDS011;11179;52.106;21.024;2022-11-15T15:08:00;66.13;;;29.37;;
22030;SDS011;11179;52.106;21.024;2022-11-15T15:10:33;55.77;;;27.33;;
22030;SDS011;11179;52.106;21.024;2022-11-15T15:13:04;68.93;;;28.23;;
22030;SDS011;11179;52.106;21.024;2022-11-15T15:15:34;77.37;;;30.80;;
22030;SDS011;11179;52.106;21.024;2022-11-15T15:18:01;73.20;;;31.17;;
22030;SDS011;11179;52.106;21.024;2022-11-15T15:20:29;65.17;;;28.77;;
22030;SDS011;11179;52.106;21.024;2022-11-15T15:22:55;65.03;;;30.50;;
22030;SDS011;11179;52.106;21.024;2022-11-15T15:25:26;67.37;;;29.27;;
22030;SDS011;11179;52.106;21.024;2022-11-15T15:27:53;71.80;;;30.40;;
22030;SDS011;11179;52.106;21.024;2022-11-15T15:30:20;73.60;;;31.97;;
22030;SDS011;11179;52.106;21.024;2022-11-15T15:32:46;63.77;;;29.27;;
22030;SDS011;11179;52.106;21.024;2022-11-15T15:35:12;68.07;;;31.20;;
22030;SDS011;11179;52.106;21.024;2022-11-15T15:37:39;78.00;;;34.57;;
22030;SDS011;11179;52.106;21.024;2022-11-15T15:40:15;71.80;;;31.17;;
22030;SDS011;11179;52.106;21.024;2022-11-15T15:42:43;70.80;;;30.90;;
22030;SDS011;11179;52.106;21.024;2022-11-15T15:45:09;69.67;;;30.60;;
22030;SDS011;11179;52.106;21.024;2022-11-15T15:47:35;68.97;;;30.50;;
22030;SDS011;11179;52.106;21.024;2022-11-15T15:50:01;74.70;;;30.00;;
22030;SDS011;11179;52.106;21.024;2022-11-15T15:52:27;80.43;;;31.23;;
22030;SDS011;11179;52.106;21.024;2022-11-15T15:54:52;67.70;;;29.07;;
22030;SDS011;11179;52.106;21.024;2022-11-15T15:57:18;74.50;;;30.87;;
22030;SDS011;11179;52.106;21.024;2022-11-15T15:59:43;75.07;;;30.40;;
22030;SDS011;11179;52.106;21.024;2022-11-15T16:02:11;76.33;;;33.37;;
22030;SDS011;11179;52.106;21.024;2022-11-15T16:04:37;72.07;;;31.60;;
22030;SDS011;11179;52.106;21.024;2022-11-15T16:07:03;72.93;;;30.90;;
22030;SDS011;11179;52.106;21.024;2022-11-15T16:09:29;67.97;;;28.87;;
22030;SDS011;11179;52.106;21.024;2022-11-15T16:12:13;93.23;;;33.50;;
22030;SDS011;11179;52.106;21.024;2022-11-15T16:14:39;174.33;;;55.97;;
22030;SDS011;11179;52.106;21.024;2022-11-15T16:17:04;91.40;;;36.00;;
22030;SDS011;11179;52.106;21.024;2022-11-15T16:19:30;84.20;;;35.17;;
22030;SDS011;11179;52.106;21.024;2022-11-15T16:21:55;69.77;;;30.40;;
22030;SDS011;11179;52.106;21.024;2022-11-15T16:24:21;68.47;;;29.20;;
22030;SDS011;11179;52.106;21.024;2022-11-15T16:26:47;76.40;;;31.90;;
22030;SDS011;11179;52.106;21.024;2022-11-15T16:29:14;79.23;;;30.47;;
22030;SDS011;11179;52.106;21.024;2022-11-15T16:31:39;76.57;;;34.23;;
22030;SDS011;11179;52.106;21.024;2022-11-15T16:34:08;69.23;;;29.10;;
22030;SDS011;11179;52.106;21.024;2022-11-15T16:36:33;71.67;;;30.00;;
22030;SDS011;11179;52.106;21.024;2022-11-15T16:39:00;75.30;;;29.20;;
22030;SDS011;11179;52.106;21.024;2022-11-15T16:41:29;73.80;;;29.40;;
22030;SDS011;11179;52.106;21.024;2022-11-15T16:43:55;76.37;;;32.60;;
22030;SDS011;11179;52.106;21.024;2022-11-15T16:46:23;74.33;;;31.00;;
22030;SDS011;11179;52.106;21.024;2022-11-15T16:48:51;70.70;;;31.30;;
22030;SDS011;11179;52.106;21.024;2022-11-15T16:51:18;81.70;;;32.03;;
22030;SDS011;11179;52.106;21.024;2022-11-15T16:53:44;67.87;;;30.00;;
22030;SDS011;11179;52.106;21.024;2022-11-15T16:56:13;81.00;;;33.50;;
22030;SDS011;11179;52.106;21.024;2022-11-15T16:58:41;77.87;;;34.53;;
22030;SDS011;11179;52.106;21.024;2022-11-15T17:01:10;76.37;;;33.33;;